TimeAKDT,TemperatureF,Dew PointF,Humidity,Sea Level PressureIn,VisibilityMPH,Wind Direction,Wind SpeedMPH,Gust SpeedMPH,PrecipitationIn,Events,Conditions,WindDirDegrees,DateUTC
12:53 AM,41.0,37.0,86,29.78,10.0,West,4.6,-,N/A,,Mostly Cloudy,260,2011-10-08 08:53:00
1:53 AM,37.9,35.1,89,29.79,10.0,WNW,4.6,-,N/A,,Scattered Clouds,290,2011-10-08 09:53:00
2:53 AM,37.9,33.1,83,29.79,10.0,WNW,6.9,-,N/A,,Scattered Clouds,290,2011-10-08 10:53:00
3:53 AM,36.0,32.0,86,29.79,10.0,West,8.1,-,N/A,,Partly Cloudy,270,2011-10-08 11:53:00
4:53 AM,37.0,33.1,86,29.79,10.0,West,6.9,-,N/A,,Partly Cloudy,270,2011-10-08 12:53:00
5:53 AM,37.0,32.0,82,29.79,10.0,West,6.9,-,N/A,,Partly Cloudy,270,2011-10-08 13:53:00
6:53 AM,37.9,34.0,86,29.78,10.0,SSW,3.5,-,N/A,,Scattered Clouds,210,2011-10-08 14:53:00
7:53 AM,34.0,32.0,92,29.78,10.0,West,4.6,-,N/A,,Scattered Clouds,280,2011-10-08 15:53:00
8:53 AM,37.0,33.1,86,29.78,10.0,WSW,4.6,-,N/A,,Scattered Clouds,250,2011-10-08 16:53:00
9:53 AM,36.0,33.1,89,29.78,10.0,West,4.6,-,N/A,,Scattered Clouds,260,2011-10-08 17:53:00
10:53 AM,43.0,37.0,80,29.77,10.0,NW,4.6,-,N/A,,Mostly Cloudy,310,2011-10-08 18:53:00
11:53 AM,48.0,36.0,63,29.77,10.0,WNW,8.1,-,N/A,,Scattered Clouds,290,2011-10-08 19:53:00
12:53 PM,48.9,36.0,61,29.76,10.0,Calm,Calm,-,N/A,,Scattered Clouds,0,2011-10-08 20:53:00
1:53 PM,48.0,37.9,68,29.75,10.0,East,8.1,-,N/A,,Scattered Clouds,100,2011-10-08 21:53:00
2:53 PM,46.4,37.4,71,29.74,10.0,SE,8.1,-,N/A,,Scattered Clouds,130,2011-10-08 22:53:00
3:53 PM,46.0,37.9,73,29.73,10.0,ESE,5.8,-,N/A,,Scattered Clouds,120,2011-10-08 23:53:00
4:53 PM,46.0,37.9,73,29.70,10.0,East,4.6,-,N/A,,Scattered Clouds,100,2011-10-09 00:53:00
5:53 PM,46.0,39.0,76,29.69,10.0,East,4.6,-,N/A,,Scattered Clouds,90,2011-10-09 01:53:00
6:53 PM,45.0,39.0,80,29.67,10.0,East,5.8,-,0.00,,Scattered Clouds,90,2011-10-09 02:53:00
7:53 PM,43.0,37.9,82,29.65,10.0,Calm,Calm,-,N/A,,Scattered Clouds,0,2011-10-09 03:53:00
8:53 PM,41.0,37.9,89,29.65,10.0,West,3.5,-,N/A,,Scattered Clouds,280,2011-10-09 04:53:00
9:53 PM,39.2,35.6,87,29.63,10.0,West,4.6,-,N/A,,Scattered Clouds,270,2011-10-09 05:53:00
10:53 PM,37.0,35.1,93,29.62,10.0,WNW,3.5,-,N/A,,Scattered Clouds,290,2011-10-09 06:53:00
11:53 PM,36.0,34.0,93,29.61,10.0,WNW,4.6,-,N/A,,Partly Cloudy,290,2011-10-09 07:53:00